createdAt,value
2023-10-29T00:04:48.730Z,34.17
2023-10-29T00:14:52.645Z,34.03
2023-10-29T00:24:54.906Z,29.77
2023-10-29T00:34:57.800Z,28.27
2023-10-29T00:44:59.605Z,32.53
2023-10-29T00:55:01.624Z,29.42
2023-10-29T01:05:06.596Z,27.77
2023-10-29T01:15:08.634Z,24.67
2023-10-29T01:25:10.911Z,24.63
2023-10-29T01:35:12.867Z,23.70
2023-10-29T01:45:18.277Z,21.23
2023-10-29T01:55:21.327Z,23.13
2023-10-29T02:05:23.189Z,22.30
2023-10-29T02:15:24.947Z,21.77
2023-10-29T02:25:26.695Z,21.88
2023-10-29T02:35:28.460Z,21.83
2023-10-29T02:45:37.557Z,20.98
2023-10-29T02:55:39.181Z,20.08
2023-10-29T03:15:46.322Z,21.33
2023-10-29T03:25:48.293Z,21.87
2023-10-29T03:35:51.134Z,20.45
2023-10-29T03:45:53.974Z,18.43
2023-10-29T03:55:59.595Z,20.60
2023-10-29T04:06:01.262Z,19.73
2023-10-29T04:16:03.105Z,21.00
2023-10-29T04:26:04.994Z,19.17
2023-10-29T04:36:07.598Z,21.75
2023-10-29T04:46:12.029Z,20.13
2023-10-29T04:56:13.821Z,20.13
2023-10-29T05:06:22.721Z,19.38
2023-10-29T05:16:24.624Z,19.40
2023-10-29T05:26:26.629Z,20.40
2023-10-29T05:36:29.385Z,21.50
2023-10-29T05:46:31.089Z,22.27
2023-10-29T05:56:33.696Z,21.90
2023-10-29T06:06:35.431Z,20.33
2023-10-29T06:16:38.474Z,21.30
2023-10-29T06:26:41.978Z,20.37
2023-10-29T06:36:54.941Z,21.70
2023-10-29T06:46:57.724Z,22.30
2023-10-29T06:57:00.570Z,23.63
2023-10-29T07:07:03.516Z,22.05
2023-10-29T07:17:05.748Z,22.30
2023-10-29T07:27:07.385Z,21.02
2023-10-29T07:37:12.030Z,22.13
2023-10-29T07:47:13.867Z,27.27
2023-10-29T07:57:16.610Z,23.55
2023-10-29T08:07:19.351Z,16.48
2023-10-29T08:17:22.286Z,14.82
2023-10-29T08:27:24.850Z,9.32
2023-10-29T08:37:26.687Z,7.10
2023-10-29T08:47:28.552Z,5.70
2023-10-29T08:57:30.223Z,5.57
2023-10-29T09:07:32.120Z,4.78
2023-10-29T09:17:33.962Z,4.30
2023-10-29T09:27:35.731Z,3.25
2023-10-29T09:37:37.429Z,2.80
2023-10-29T09:47:39.861Z,2.90
2023-10-29T09:57:42.810Z,3.00
2023-10-29T10:07:44.491Z,2.45
2023-10-29T10:18:05.815Z,2.30
2023-10-29T10:28:09.945Z,1.90
2023-10-29T10:38:12.198Z,1.52
2023-10-29T10:48:13.991Z,2.00
2023-10-29T10:58:19.341Z,1.08
2023-10-29T11:08:22.539Z,1.20
2023-10-29T11:18:36.151Z,1.13
2023-10-29T11:28:37.811Z,0.80
2023-10-29T11:38:40.556Z,0.80
2023-10-29T11:49:04.881Z,0.70
2023-10-29T11:59:06.972Z,1.42
2023-10-29T12:09:23.861Z,0.73
2023-10-29T12:19:41.589Z,0.57
2023-10-29T12:29:43.473Z,0.75
2023-10-29T12:39:46.482Z,1.00
2023-10-29T12:50:04.683Z,0.85
2023-10-29T13:00:07.643Z,1.05
2023-10-29T13:10:14.136Z,0.90
2023-10-29T13:20:16.345Z,0.63
2023-10-29T13:30:18.271Z,1.13
2023-10-29T13:40:20.253Z,0.90
2023-10-29T13:50:22.001Z,1.15
2023-10-29T14:00:27.053Z,1.00
2023-10-29T14:10:28.886Z,1.00
2023-10-29T14:20:31.252Z,1.00
2023-10-29T14:30:34.897Z,1.20
2023-10-29T14:40:40.276Z,0.75
2023-10-29T14:50:43.402Z,0.82
2023-10-29T15:00:46.257Z,2.00
2023-10-29T15:10:52.153Z,1.50
2023-10-29T15:21:01.020Z,1.35
2023-10-29T15:31:10.639Z,1.48
2023-10-29T15:41:14.701Z,1.70
2023-10-29T15:51:17.021Z,1.55
2023-10-29T16:01:20.477Z,1.52
2023-10-29T16:11:24.387Z,1.42
2023-10-29T16:21:27.067Z,1.88
2023-10-29T16:31:31.817Z,2.00
2023-10-29T16:41:34.240Z,17.08
2023-10-29T16:51:37.018Z,3.30
2023-10-29T17:01:40.181Z,2.20
2023-10-29T17:11:43.830Z,1.35
2023-10-29T17:21:50.632Z,1.45
2023-10-29T17:31:54.952Z,1.80
2023-10-29T17:41:58.200Z,2.53
2023-10-29T17:52:02.167Z,2.05
2023-10-29T18:02:04.881Z,2.22
2023-10-29T18:12:08.293Z,2.22
2023-10-29T18:22:11.577Z,1.98
2023-10-29T18:32:14.233Z,1.80
2023-10-29T18:42:17.147Z,1.75
2023-10-29T18:52:20.274Z,1.95
2023-10-29T19:02:23.002Z,1.60
2023-10-29T19:12:26.101Z,1.67
2023-10-29T19:22:31.757Z,1.52
2023-10-29T19:32:36.916Z,1.63
2023-10-29T19:42:41.810Z,1.90
2023-10-29T19:52:53.451Z,1.95
2023-10-29T20:02:58.715Z,1.60
2023-10-29T20:13:01.890Z,1.60
2023-10-29T20:23:05.757Z,1.98
2023-10-29T20:33:09.789Z,2.08
2023-10-29T20:43:12.178Z,1.67
2023-10-29T20:53:15.486Z,2.08
2023-10-29T21:03:17.686Z,1.80
2023-10-29T21:23:28.948Z,1.92
2023-10-29T21:33:30.837Z,1.23
2023-10-29T21:43:35.591Z,1.40
2023-10-29T21:53:39.594Z,1.50
2023-10-29T22:03:41.445Z,1.37
2023-10-29T22:13:43.262Z,2.50
2023-10-29T22:23:46.686Z,1.70
2023-10-29T22:33:49.269Z,2.10
2023-10-29T22:43:51.005Z,2.90
2023-10-29T22:53:52.681Z,1.87
2023-10-29T23:03:54.524Z,1.60
2023-10-29T23:13:56.342Z,1.93
2023-10-29T23:23:59.042Z,2.00
2023-10-29T23:34:00.846Z,1.20
2023-10-29T23:44:08.992Z,1.50
2023-10-29T23:54:11.015Z,1.42
